Time;durP1;ratioP1;P1;durP2;ratioP2;P2;SDS_P1;SDS_P2;PMS_P1;PMS_P2;Temp;Humidity;BMP_temperature;BMP_pressure;BME280_temperature;BME280_humidity;BME280_pressure;Samples;Min_cycle;Max_cycle;Signal;HPM_P1;HPM_P2
2022/07/29 00:02:17;;;;;;;2.35;1.50;;;;;;;20.00;69.73;99606.97;4907985;29;20097;-53
2022/07/29 00:04:43;;;;;;;1.98;1.55;;;;;;;19.96;69.52;99608.09;4907455;29;20042;-53
2022/07/29 00:07:08;;;;;;;2.08;1.50;;;;;;;19.97;69.83;99605.38;4907581;29;20063;-53
2022/07/29 00:09:34;;;;;;;2.25;1.63;;;;;;;19.83;69.24;99611.47;4907534;29;20032;-53
2022/07/29 00:12:01;;;;;;;2.63;1.50;;;;;;;19.88;68.90;99611.22;4907686;29;20073;-55
2022/07/29 00:14:27;;;;;;;3.25;1.63;;;;;;;19.79;68.80;99615.22;4907575;29;20024;-53
2022/07/29 00:16:53;;;;;;;1.88;1.60;;;;;;;19.82;69.14;99612.44;4907937;29;20091;-53
2022/07/29 00:19:19;;;;;;;3.88;1.80;;;;;;;19.61;68.42;99611.03;4907570;29;20040;-53
2022/07/29 00:21:44;;;;;;;2.75;1.50;;;;;;;19.63;68.94;99612.66;4907622;29;20041;-53
2022/07/29 00:24:10;;;;;;;3.25;1.55;;;;;;;19.62;69.10;99616.22;4907296;29;20220;-54
2022/07/29 00:26:35;;;;;;;3.30;1.80;;;;;;;19.73;68.84;99615.56;4907371;29;20043;-53
2022/07/29 00:29:03;;;;;;;2.60;1.60;;;;;;;19.39;68.61;99567.69;4907546;29;20324;-53
2022/07/29 00:31:28;;;;;;;2.25;1.58;;;;;;;19.39;68.62;99620.22;4907734;29;20024;-53
2022/07/29 00:33:54;;;;;;;4.25;2.13;;;;;;;19.48;68.58;99622.31;4907103;29;20020;-53
2022/07/29 00:36:20;;;;;;;3.70;2.00;;;;;;;19.17;69.62;99620.66;4903368;29;20028;-53
2022/07/29 00:38:50;;;;;;;4.90;2.22;;;;;;;19.28;69.36;99614.75;4892286;29;20088;-53
2022/07/29 00:41:18;;;;;;;4.40;2.15;;;;;;;19.03;70.07;99575.97;4907321;29;20194;-53
2022/07/29 00:43:45;;;;;;;2.88;2.15;;;;;;;19.10;70.07;99619.31;4906803;29;20036;-54
2022/07/29 00:46:12;;;;;;;3.42;2.30;;;;;;;19.13;69.86;99624.38;4906965;29;20056;-53
2022/07/29 00:48:38;;;;;;;3.85;2.03;;;;;;;19.23;70.49;99624.69;4907277;29;20033;-54
2022/07/29 00:51:07;;;;;;;2.65;1.70;;;;;;;19.32;69.15;99634.66;4907387;29;20221;-54
2022/07/29 00:53:33;;;;;;;4.38;2.03;;;;;;;19.31;70.11;99631.19;4906931;29;20037;-54
2022/07/29 00:55:59;;;;;;;3.22;1.90;;;;;;;19.30;69.57;99626.84;4924082;29;20308;-53
2022/07/29 00:58:26;;;;;;;6.47;1.77;;;;;;;19.10;70.00;99609.66;4909612;29;20052;-53
2022/07/29 01:00:52;;;;;;;3.15;1.83;;;;;;;19.27;69.25;99631.47;4910842;29;20021;-53
2022/07/29 01:03:18;;;;;;;5.50;2.15;;;;;;;19.23;69.37;99629.94;4910723;29;20044;-53
2022/07/29 01:05:45;;;;;;;5.82;2.22;;;;;;;19.21;69.29;99655.44;4907310;29;20213;-53
2022/07/29 01:08:13;;;;;;;7.40;2.25;;;;;;;18.79;68.22;99600.03;4892026;29;20036;-53
2022/07/29 01:10:40;;;;;;;3.30;2.15;;;;;;;18.96;69.12;99641.94;4910133;29;20021;-53
2022/07/29 01:13:07;;;;;;;3.97;2.30;;;;;;;19.01;69.40;99646.94;4910646;29;20069;-53
2022/07/29 01:15:39;;;;;;;3.92;2.40;;;;;;;18.79;69.29;99650.72;4910420;29;20299;-53
2022/07/29 01:18:11;;;;;;;5.72;2.80;;;;;;;19.00;69.03;99658.38;4910766;29;20032;-53
2022/07/29 01:21:09;;;;;;;7.78;2.92;;;;;;;19.02;68.65;99651.22;4910466;29;20029;-53
2022/07/29 01:23:46;;;;;;;5.53;2.60;;;;;;;19.04;68.97;99661.66;4910401;29;20036;-53
2022/07/29 01:26:28;;;;;;;5.70;2.83;;;;;;;18.97;69.68;99648.03;4910408;29;20221;-53
2022/07/29 01:29:01;;;;;;;6.63;3.00;;;;;;;18.98;69.91;99649.72;4910783;29;20075;-53
2022/07/29 01:31:44;;;;;;;5.95;2.67;;;;;;;18.56;70.25;99603.97;4910246;29;20040;-53
2022/07/29 01:34:16;;;;;;;7.25;2.90;;;;;;;18.87;69.18;99657.34;4910441;29;20128;-53
2022/07/29 01:36:55;;;;;;;4.70;2.83;;;;;;;18.73;68.97;99643.22;4910318;29;20028;-53
2022/07/29 01:39:31;;;;;;;4.13;2.40;;;;;;;18.77;69.34;99644.72;4908930;29;20044;-53
2022/07/29 01:42:08;;;;;;;4.65;2.65;;;;;;;18.76;70.11;99650.06;4895788;29;20451;-53
2022/07/29 01:44:50;;;;;;;4.03;2.70;;;;;;;18.49;70.26;99613.09;4909961;29;20040;-53
2022/07/29 01:47:21;;;;;;;6.00;2.67;;;;;;;18.57;69.45;99616.13;4922176;29;20165;-51
2022/07/29 01:49:51;;;;;;;6.25;2.75;;;;;;;18.51;69.75;99600.75;4891138;29;20261;-53
2022/07/29 01:52:40;;;;;;;6.85;3.33;;;;;;;18.62;69.86;99654.28;4905907;29;20029;-54
2022/07/29 01:55:15;;;;;;;5.07;2.88;;;;;;;18.59;69.78;99609.88;4912554;29;20075;-53
2022/07/29 01:57:46;;;;;;;5.35;3.20;;;;;;;18.70;70.02;99643.38;4918200;29;20039;-52
2022/07/29 02:00:12;;;;;;;7.77;3.43;;;;;;;18.66;70.03;99641.03;4909911;29;20032;-52
2022/07/29 02:02:41;;;;;;;5.60;2.95;;;;;;;18.45;70.51;99615.91;4909420;29;20459;-52
2022/07/29 02:05:09;;;;;;;6.18;3.45;;;;;;;18.39;70.82;99597.88;4909696;29;20234;-52
2022/07/29 02:07:36;;;;;;;7.22;2.85;;;;;;;18.63;70.98;99649.91;4909677;29;20028;-52
2022/07/29 02:10:04;;;;;;;7.38;3.15;;;;;;;18.62;70.50;99659.53;4909205;29;20047;-52
2022/07/29 02:12:32;;;;;;;5.03;2.72;;;;;;;18.57;70.98;99631.88;4909291;29;20051;-52
2022/07/29 02:15:18;;;;;;;5.18;2.00;;;;;;;18.67;70.97;99655.81;4907705;29;20033;-52
2022/07/29 02:17:51;;;;;;;5.90;2.60;;;;;;;18.33;71.80;99613.09;4909495;29;20091;-52
2022/07/29 02:20:16;;;;;;;6.55;2.30;;;;;;;18.62;72.15;99663.94;4909802;29;20075;-52
2022/07/29 02:22:44;;;;;;;7.55;2.67;;;;;;;18.39;71.45;99625.88;4909173;29;20043;-52
2022/07/29 02:25:12;;;;;;;4.03;2.40;;;;;;;18.53;71.27;99661.84;4909197;29;20025;-52
2022/07/29 02:27:39;;;;;;;8.48;2.72;;;;;;;18.33;71.78;99619.19;4908238;29;20051;-52
2022/07/29 02:30:06;;;;;;;4.85;2.20;;;;;;;18.57;71.96;99673.84;4909366;29;20036;-52
2022/07/29 02:32:35;;;;;;;5.35;2.03;;;;;;;18.62;72.34;99670.03;4909013;29;20020;-52
2022/07/29 02:35:02;;;;;;;6.22;2.70;;;;;;;18.59;71.18;99669.38;4909206;29;20044;-52
2022/07/29 02:37:31;;;;;;;6.82;2.60;;;;;;;18.32;71.38;99617.50;4908928;29;20032;-52
2022/07/29 02:39:58;;;;;;;8.43;3.15;;;;;;;18.65;70.81;99662.94;4908649;29;20213;-52
2022/07/29 02:42:27;;;;;;;11.27;4.05;;;;;;;18.65;70.27;99671.63;4908785;29;20043;-52
2022/07/29 02:44:52;;;;;;;6.57;2.75;;;;;;;18.68;71.23;99668.84;4908680;29;20037;-52
2022/07/29 02:47:20;;;;;;;6.00;3.05;;;;;;;18.48;72.17;99677.81;4908548;29;20112;-53
2022/07/29 02:49:57;;;;;;;9.52;3.47;;;;;;;18.62;71.21;99661.31;4908212;29;20039;-53
2022/07/29 02:52:44;;;;;;;8.25;3.75;;;;;;;18.58;71.64;99670.28;4908738;29;20040;-53
2022/07/29 02:55:47;;;;;;;7.82;3.92;;;;;;;18.53;72.48;99667.09;4908431;29;20266;-52
2022/07/29 02:58:28;;;;;;;10.45;4.00;;;;;;;18.31;72.59;99630.69;4888847;29;20040;-52
2022/07/29 03:00:58;;;;;;;7.90;3.90;;;;;;;18.66;71.40;99675.97;4908527;29;20047;-52
2022/07/29 03:03:27;;;;;;;7.45;4.13;;;;;;;18.69;71.55;99669.72;4908614;29;20024;-52
2022/07/29 03:05:59;;;;;;;6.72;3.40;;;;;;;18.41;71.36;99635.34;4903916;29;20238;-52
2022/07/29 03:08:27;;;;;;;8.32;3.45;;;;;;;18.51;71.20;99626.97;4892396;29;20023;-52
2022/07/29 03:10:54;;;;;;;7.38;3.20;;;;;;;18.69;71.26;99674.97;4889771;29;20072;-53
2022/07/29 03:13:21;;;;;;;5.40;2.83;;;;;;;18.71;71.85;99662.59;4904238;29;20308;-52
2022/07/29 03:15:47;;;;;;;6.25;2.60;;;;;;;18.83;71.34;99669.78;4908128;29;20037;-52
2022/07/29 03:18:13;;;;;;;6.22;2.90;;;;;;;18.80;71.42;99664.72;4908588;29;20039;-53
2022/07/29 03:20:39;;;;;;;6.07;3.38;;;;;;;18.84;70.76;99668.00;4908142;29;20052;-53
2022/07/29 03:23:05;;;;;;;4.72;2.90;;;;;;;18.91;70.21;99667.63;4908415;29;20088;-53
2022/07/29 03:25:31;;;;;;;7.93;2.50;;;;;;;18.95;70.63;99671.75;4908094;29;20032;-53
2022/07/29 03:27:56;;;;;;;6.03;3.25;;;;;;;18.92;70.55;99661.41;4908128;29;20028;-53
2022/07/29 03:30:23;;;;;;;8.80;3.08;;;;;;;19.00;69.80;99670.63;4908016;29;20043;-54
2022/07/29 03:32:50;;;;;;;9.52;3.35;;;;;;;19.09;70.16;99680.63;4907414;29;20351;-53
2022/07/29 03:35:19;;;;;;;7.25;2.92;;;;;;;19.09;69.82;99670.94;4906720;29;20028;-53
2022/07/29 03:37:45;;;;;;;7.63;3.22;;;;;;;19.20;68.99;99674.75;4907828;29;20400;-53
2022/07/29 03:40:19;;;;;;;9.45;2.88;;;;;;;19.21;69.38;99661.53;4907767;29;20036;-53
2022/07/29 03:42:46;;;;;;;5.85;2.75;;;;;;;19.27;69.50;99668.22;4907798;29;20033;-52
2022/07/29 03:45:18;;;;;;;5.10;2.60;;;;;;;19.27;69.92;99682.19;4909079;29;20096;-54
2022/07/29 03:47:51;;;;;;;5.72;2.60;;;;;;;19.29;70.02;99679.47;4924673;29;20335;-54
2022/07/29 03:50:19;;;;;;;5.03;2.30;;;;;;;19.24;70.53;99671.00;4908035;29;20037;-54
2022/07/29 03:52:45;;;;;;;4.50;2.40;;;;;;;19.33;69.55;99680.16;4907774;29;20031;-53
2022/07/29 03:55:11;;;;;;;5.07;2.20;;;;;;;19.37;69.38;99682.50;4907712;29;20052;-53
2022/07/29 03:57:39;;;;;;;6.40;2.35;;;;;;;19.42;69.53;99685.69;4907544;29;20279;-53
2022/07/29 04:00:06;;;;;;;6.20;2.85;;;;;;;19.46;69.14;99687.22;4907601;29;20032;-54
2022/07/29 04:02:33;;;;;;;6.03;2.30;;;;;;;19.48;69.53;99674.84;4907741;29;20077;-54
2022/07/29 04:04:58;;;;;;;4.05;2.55;;;;;;;19.64;69.00;99687.09;4907524;29;20227;-53
2022/07/29 04:07:24;;;;;;;5.35;2.63;;;;;;;19.48;68.75;99692.38;4907682;29;20036;-54
2022/07/29 04:09:50;;;;;;;6.30;2.35;;;;;;;19.48;68.24;99693.22;4907421;29;20044;-53
2022/07/29 04:12:15;;;;;;;7.35;2.30;;;;;;;19.31;67.66;99688.97;4907249;29;20250;-53
2022/07/29 04:14:41;;;;;;;3.80;2.03;;;;;;;19.45;67.17;99684.66;4907406;29;20033;-53
2022/07/29 04:17:07;;;;;;;4.65;1.80;;;;;;;19.53;67.50;99686.88;4907401;29;20100;-52
2022/07/29 04:19:33;;;;;;;4.22;1.77;;;;;;;19.58;67.81;99685.66;4907591;29;20043;-52
2022/07/29 04:21:59;;;;;;;5.93;2.10;;;;;;;19.65;67.36;99680.88;4907273;29;20316;-52
2022/07/29 04:24:25;;;;;;;6.53;1.70;;;;;;;19.67;66.94;99686.91;4905312;29;20453;-52
2022/07/29 04:26:51;;;;;;;5.72;2.28;;;;;;;19.73;66.50;99683.06;4906757;29;20104;-52
2022/07/29 04:29:17;;;;;;;3.70;1.83;;;;;;;19.73;67.13;99689.16;4907027;29;20363;-52
2022/07/29 04:31:43;;;;;;;3.67;1.90;;;;;;;19.72;66.33;99687.44;4906987;29;20048;-52
2022/07/29 04:34:09;;;;;;;3.88;2.08;;;;;;;19.81;66.03;99692.22;4908524;29;20057;-53
2022/07/29 04:36:35;;;;;;;4.55;2.00;;;;;;;19.82;67.27;99693.91;4925505;29;20032;-52
2022/07/29 04:39:01;;;;;;;7.60;2.50;;;;;;;19.98;66.50;99688.56;4911033;29;20349;-53
2022/07/29 04:41:28;;;;;;;4.93;2.05;;;;;;;20.01;66.54;99690.16;4925545;29;20033;-52
2022/07/29 04:43:53;;;;;;;5.53;2.55;;;;;;;20.10;66.43;99692.22;4911150;29;20103;-54
2022/07/29 04:46:19;;;;;;;5.38;2.20;;;;;;;20.22;66.11;99698.50;4921090;29;20086;-55
2022/07/29 04:48:48;;;;;;;4.00;1.80;;;;;;;20.30;66.09;99695.41;4920233;29;20032;-53
2022/07/29 04:51:16;;;;;;;5.95;2.08;;;;;;;20.33;65.16;99695.22;4911141;29;20032;-53
2022/07/29 04:53:42;;;;;;;3.63;2.00;;;;;;;20.40;65.01;99693.06;4910911;29;20038;-53
2022/07/29 04:56:08;;;;;;;7.30;1.70;;;;;;;20.39;64.12;99691.38;4910825;29;20087;-52
2022/07/29 04:58:37;;;;;;;3.30;1.67;;;;;;;20.57;62.86;99695.47;4910788;29;20032;-53
2022/07/29 05:01:03;;;;;;;3.65;1.98;;;;;;;20.57;62.35;99694.66;4910962;29;20067;-53
2022/07/29 05:03:29;;;;;;;3.53;1.83;;;;;;;20.57;62.11;99690.22;4903591;29;20149;-53
2022/07/29 05:05:55;;;;;;;3.65;2.05;;;;;;;20.62;61.29;99703.06;4894594;29;20100;-54
2022/07/29 05:08:20;;;;;;;8.25;1.83;;;;;;;20.75;61.82;99688.25;4910285;29;20024;-53
2022/07/29 05:10:46;;;;;;;4.70;1.92;;;;;;;21.04;61.45;99696.88;4910219;29;20072;-53
2022/07/29 05:13:11;;;;;;;4.32;1.50;;;;;;;21.16;61.03;99692.63;4910063;29;20024;-53
2022/07/29 05:15:37;;;;;;;5.88;1.63;;;;;;;21.33;60.75;99698.56;4909306;29;20221;-53
2022/07/29 05:18:04;;;;;;;4.20;1.40;;;;;;;21.45;60.68;99704.81;4910556;29;20148;-54
2022/07/29 05:20:30;;;;;;;4.22;1.45;;;;;;;21.43;60.37;99699.63;4910325;29;20035;-53
2022/07/29 05:22:57;;;;;;;3.22;1.60;;;;;;;21.81;59.77;99704.16;4910432;29;20104;-53
2022/07/29 05:25:24;;;;;;;3.97;1.70;;;;;;;21.75;58.14;99698.44;4909821;29;20032;-54
2022/07/29 05:27:49;;;;;;;4.15;1.67;;;;;;;21.85;57.91;99704.81;4910293;29;20103;-53
2022/07/29 05:30:15;;;;;;;2.67;1.60;;;;;;;21.93;57.67;99710.38;4910302;29;20115;-53
2022/07/29 05:32:41;;;;;;;2.85;1.48;;;;;;;21.81;56.09;99706.78;4909854;29;20237;-53
2022/07/29 05:35:07;;;;;;;4.35;1.80;;;;;;;21.84;57.04;99711.84;4909998;29;20031;-53
2022/07/29 05:37:33;;;;;;;3.13;1.40;;;;;;;21.85;55.96;99707.44;4910075;29;20404;-53
2022/07/29 05:39:58;;;;;;;4.75;1.70;;;;;;;21.73;56.32;99709.09;4910010;29;20036;-53
2022/07/29 05:42:25;;;;;;;4.68;1.58;;;;;;;21.75;55.80;99704.59;4909735;29;20036;-52
2022/07/29 05:44:52;;;;;;;2.05;1.30;;;;;;;21.68;56.26;99705.94;4909890;29;20032;-52
2022/07/29 05:47:17;;;;;;;4.05;1.92;;;;;;;21.62;56.72;99701.06;4927659;29;20124;-52
2022/07/29 05:49:43;;;;;;;5.00;1.98;;;;;;;21.24;57.89;99699.19;4912070;29;20029;-52
2022/07/29 05:52:09;;;;;;;2.97;1.65;;;;;;;21.64;58.49;99707.09;4909408;29;20028;-53
2022/07/29 05:54:35;;;;;;;3.67;1.55;;;;;;;21.67;58.09;99712.16;4915332;29;20121;-52
2022/07/29 05:57:01;;;;;;;4.00;1.70;;;;;;;21.85;57.82;99708.28;4925101;29;20095;-53
2022/07/29 05:59:27;;;;;;;1.98;1.40;;;;;;;21.85;57.35;99712.72;4909652;29;20044;-52
2022/07/29 06:01:52;;;;;;;4.28;1.92;;;;;;;21.89;57.62;99711.56;4909277;29;20080;-53
2022/07/29 06:04:18;;;;;;;4.53;1.90;;;;;;;21.68;57.20;99698.88;4909464;29;20372;-53
2022/07/29 06:06:43;;;;;;;2.85;1.45;;;;;;;21.63;56.57;99702.75;4909403;29;20025;-53
2022/07/29 06:09:09;;;;;;;2.80;1.80;;;;;;;21.69;56.94;99695.28;4909501;29;20332;-53
2022/07/29 06:11:35;;;;;;;4.47;2.10;;;;;;;21.83;57.25;99697.00;4909791;29;20096;-53
2022/07/29 06:14:02;;;;;;;5.60;2.25;;;;;;;21.72;55.57;99705.63;4909147;29;20345;-52
2022/07/29 06:16:28;;;;;;;4.78;1.63;;;;;;;21.77;55.54;99701.84;4909300;29;20329;-52
2022/07/29 06:18:53;;;;;;;4.10;1.35;;;;;;;21.54;54.76;99694.53;4909396;29;20044;-52
2022/07/29 06:21:19;;;;;;;3.80;1.48;;;;;;;21.82;56.05;99711.13;4908639;29;20028;-53
2022/07/29 06:23:45;;;;;;;5.28;1.60;;;;;;;21.91;55.73;99699.09;4909242;29;20039;-52
2022/07/29 06:26:11;;;;;;;5.85;1.60;;;;;;;21.93;55.27;99691.91;4908531;29;20064;-52
2022/07/29 06:28:37;;;;;;;3.25;1.98;;;;;;;22.01;54.87;99707.22;4908869;29;20080;-53
2022/07/29 06:31:02;;;;;;;3.50;1.58;;;;;;;22.07;55.21;99698.88;4908014;29;20033;-53
2022/07/29 06:33:28;;;;;;;4.07;1.50;;;;;;;22.01;54.55;99699.31;4908725;29;20092;-53
2022/07/29 06:35:54;;;;;;;8.25;1.90;;;;;;;21.84;54.59;99695.19;4907228;29;20213;-53
2022/07/29 06:38:20;;;;;;;4.18;1.42;;;;;;;21.91;52.85;99698.28;4908611;29;20328;-52
2022/07/29 06:41:05;;;;;;;5.10;1.52;;;;;;;21.82;50.66;99692.66;4907457;29;20066;-53
2022/07/29 06:43:38;;;;;;;2.80;1.38;;;;;;;21.79;52.35;99695.53;4908788;29;20046;-52
2022/07/29 06:46:06;;;;;;;1.85;1.30;;;;;;;21.95;52.73;99697.09;4916957;29;20055;-52
2022/07/29 06:48:33;;;;;;;4.55;1.50;;;;;;;22.07;52.57;99693.59;4909337;29;20321;-53
2022/07/29 06:50:59;;;;;;;5.40;1.35;;;;;;;22.06;52.01;99687.50;4909073;29;20041;-53
2022/07/29 06:53:26;;;;;;;9.27;1.50;;;;;;;22.21;53.00;99690.84;4908891;29;20092;-53
2022/07/29 06:55:51;;;;;;;3.47;1.40;;;;;;;22.38;52.42;99699.41;4923355;29;20031;-53
2022/07/29 06:58:20;;;;;;;4.95;1.50;;;;;;;22.45;51.63;99695.41;4914082;29;20032;-53
2022/07/29 07:00:46;;;;;;;2.28;1.30;;;;;;;22.53;51.03;99690.41;4908490;29;20025;-54
2022/07/29 07:03:12;;;;;;;1.85;1.42;;;;;;;22.47;50.33;99695.28;4904357;29;20668;-54
2022/07/29 07:05:38;;;;;;;3.80;1.20;;;;;;;22.33;50.65;99702.41;4900870;29;20037;-53
2022/07/29 07:08:05;;;;;;;2.92;1.10;;;;;;;22.27;50.74;99700.13;4908713;29;20036;-53
2022/07/29 07:10:31;;;;;;;4.68;1.48;;;;;;;22.45;51.29;99691.94;4908114;29;20107;-53
2022/07/29 07:12:56;;;;;;;3.90;1.50;;;;;;;22.50;51.32;99693.28;4906845;29;20032;-54
2022/07/29 07:15:22;;;;;;;5.78;1.40;;;;;;;22.43;51.70;99704.38;4907839;29;20021;-53
2022/07/29 07:17:50;;;;;;;1.40;1.10;;;;;;;22.66;51.70;99695.66;4907416;29;20028;-52
2022/07/29 07:20:17;;;;;;;8.02;1.40;;;;;;;22.43;49.98;99704.38;4904632;29;20373;-53
2022/07/29 07:22:43;;;;;;;1.95;1.42;;;;;;;22.45;50.55;99705.13;4905286;29;20024;-52
2022/07/29 07:25:10;;;;;;;7.13;1.75;;;;;;;22.44;51.13;99709.53;4906949;29;20056;-52
2022/07/29 07:27:37;;;;;;;5.32;1.80;;;;;;;22.49;50.09;99710.06;4907967;29;20060;-53
2022/07/29 07:30:06;;;;;;;3.47;1.42;;;;;;;22.43;50.52;99713.13;4907914;29;20072;-52
2022/07/29 07:32:33;;;;;;;9.68;1.83;;;;;;;22.51;50.36;99715.22;4906634;29;20035;-53
2022/07/29 07:34:59;;;;;;;6.53;1.90;;;;;;;22.44;48.94;99714.81;4905877;29;20020;-53
2022/07/29 07:37:25;;;;;;;7.57;1.85;;;;;;;22.57;49.89;99713.00;4906537;29;20047;-53
2022/07/29 07:39:52;;;;;;;6.13;1.83;;;;;;;22.58;50.05;99693.56;4907211;29;20035;-52
2022/07/29 07:42:18;;;;;;;4.13;1.42;;;;;;;22.77;50.23;99692.22;4907452;29;20025;-52
2022/07/29 07:44:45;;;;;;;3.47;1.90;;;;;;;22.88;50.65;99700.22;4907553;29;20241;-53
2022/07/29 07:47:12;;;;;;;4.32;1.58;;;;;;;22.97;49.82;99705.78;4909720;29;20051;-53
2022/07/29 07:49:39;;;;;;;5.20;1.50;;;;;;;23.02;50.23;99701.03;4906364;29;20044;-54
2022/07/29 07:52:05;;;;;;;4.88;1.58;;;;;;;23.20;50.72;99699.72;4904681;29;20254;-54
2022/07/29 07:54:30;;;;;;;5.28;1.58;;;;;;;23.22;50.72;99700.41;4893850;29;20044;-54
2022/07/29 07:56:56;;;;;;;3.72;1.25;;;;;;;23.33;49.97;99709.34;4907504;29;20025;-54
2022/07/29 07:59:22;;;;;;;5.22;1.40;;;;;;;23.35;50.88;99696.88;4909335;29;20098;-53
2022/07/29 08:01:49;;;;;;;5.57;1.85;;;;;;;23.50;49.74;99710.72;4912372;29;20067;-53
2022/07/29 08:04:15;;;;;;;5.05;1.48;;;;;;;23.54;48.79;99713.03;4916200;29;20032;-54
2022/07/29 08:06:41;;;;;;;7.53;2.08;;;;;;;23.32;47.78;99712.97;4906746;29;20024;-53
2022/07/29 08:09:06;;;;;;;19.58;3.28;;;;;;;23.42;48.43;99714.78;4906212;29;20345;-53
2022/07/29 08:11:35;;;;;;;7.45;2.03;;;;;;;23.57;49.51;99711.94;4913508;29;20076;-54
2022/07/29 08:14:02;;;;;;;8.77;1.88;;;;;;;23.48;48.56;99718.78;4914338;29;20032;-53
2022/07/29 08:16:28;;;;;;;3.83;1.30;;;;;;;23.60;49.27;99712.59;4908833;29;20036;-52
2022/07/29 08:18:56;;;;;;;3.72;1.52;;;;;;;23.67;49.59;99720.91;4906724;29;20036;-52
2022/07/29 08:21:23;;;;;;;3.00;1.30;;;;;;;23.23;47.86;99712.69;4906399;29;20087;-53
2022/07/29 08:23:52;;;;;;;3.65;1.52;;;;;;;23.22;50.15;99681.09;4906934;29;20297;-53
2022/07/29 08:26:18;;;;;;;3.85;1.50;;;;;;;23.08;48.65;99706.69;4907174;29;20043;-53
2022/07/29 08:28:45;;;;;;;4.45;1.40;;;;;;;23.47;49.71;99714.44;4905166;29;20032;-53
2022/07/29 08:31:13;;;;;;;11.25;1.73;;;;;;;23.60;49.49;99703.78;4899160;29;20217;-53
2022/07/29 08:33:39;;;;;;;2.85;1.30;;;;;;;23.77;48.60;99702.50;4906803;29;20224;-53
2022/07/29 08:36:06;;;;;;;1.90;1.17;;;;;;;23.88;48.44;99702.56;4906208;29;20055;-53
2022/07/29 08:38:32;;;;;;;2.92;1.10;;;;;;;23.94;47.46;99704.75;4906775;29;20521;-53
2022/07/29 08:41:00;;;;;;;6.57;1.50;;;;;;;23.99;47.15;99695.63;4906925;29;20208;-53
2022/07/29 08:43:30;;;;;;;2.47;1.13;;;;;;;23.69;47.02;99665.25;4906045;29;20087;-53
2022/07/29 08:45:55;;;;;;;2.33;1.10;;;;;;;23.91;47.55;99714.72;4901723;29;20053;-53
2022/07/29 08:48:23;;;;;;;3.97;1.50;;;;;;;23.75;46.32;99656.84;4906704;29;20028;-52
2022/07/29 08:50:56;;;;;;;1.77;1.20;;;;;;;24.24;44.72;99699.81;4906709;29;20028;-53
2022/07/29 08:53:26;;;;;;;3.95;1.30;;;;;;;24.16;44.36;99660.72;4897257;29;20029;-54
2022/07/29 08:55:52;;;;;;;4.07;1.15;;;;;;;24.54;44.14;99698.34;4909279;29;20129;-54
2022/07/29 08:58:19;;;;;;;3.08;1.05;;;;;;;24.60;44.45;99703.22;4906642;29;20040;-53
2022/07/29 09:00:52;;;;;;;3.83;1.20;;;;;;;24.46;44.95;99661.91;4905376;29;20064;-53
2022/07/29 09:03:22;;;;;;;1.63;1.02;;;;;;;24.56;43.91;99701.75;4906627;29;20245;-53
2022/07/29 09:05:48;;;;;;;2.38;1.10;;;;;;;24.18;44.33;99706.44;4906559;29;20351;-53
2022/07/29 09:08:16;;;;;;;3.00;1.10;;;;;;;24.34;43.29;99710.53;4906770;29;20299;-53
2022/07/29 09:10:42;;;;;;;2.78;1.00;;;;;;;24.21;42.71;99695.59;4905181;29;20305;-53
2022/07/29 09:13:08;;;;;;;2.75;1.40;;;;;;;24.46;43.24;99698.97;4906692;29;20041;-53
2022/07/29 09:15:33;;;;;;;5.00;1.30;;;;;;;24.36;43.28;99704.16;4906964;29;20353;-53
2022/07/29 09:18:00;;;;;;;2.90;1.10;;;;;;;24.55;43.77;99700.06;4906451;29;20344;-53
2022/07/29 09:21:57;;;;;;;2.85;1.20;;;;;;;24.71;43.45;99711.16;4908669;29;20388;-53
2022/07/29 09:23:13;;;;;;;3.42;1.13;;;;;;;24.79;44.93;99695.44;4910236;29;20035;-53
2022/07/29 09:25:40;;;;;;;4.35;1.60;;;;;;;24.65;43.09;99703.66;4909833;29;20024;-53
2022/07/29 09:28:07;;;;;;;3.88;1.40;;;;;;;24.44;43.85;99674.41;4910071;29;20083;-53
2022/07/29 09:30:33;;;;;;;2.42;1.23;;;;;;;24.63;44.34;99703.78;4910180;29;20028;-53
2022/07/29 09:33:01;;;;;;;3.05;0.93;;;;;;;24.36;43.43;99664.44;4909747;29;20303;-53
2022/07/29 09:35:28;;;;;;;2.50;1.13;;;;;;;24.21;43.65;99677.06;4909303;29;20250;-53
2022/07/29 09:37:54;;;;;;;1.48;1.00;;;;;;;24.25;43.56;99712.94;4909799;29;20064;-53
2022/07/29 09:40:24;;;;;;;3.47;1.35;;;;;;;24.33;47.30;99722.94;4909613;29;20371;-53
2022/07/29 09:42:51;;;;;;;3.03;1.23;;;;;;;24.19;44.09;99721.38;4908471;29;20036;-53
2022/07/29 09:45:31;;;;;;;2.53;1.33;;;;;;;24.20;46.18;99699.22;4911304;29;20040;-54
2022/07/29 09:48:02;;;;;;;4.60;1.70;;;;;;;24.49;45.20;99714.63;4926202;29;20032;-54
2022/07/29 09:50:43;;;;;;;3.50;1.40;;;;;;;24.56;45.95;99722.94;4908009;29;20095;-53
2022/07/29 09:53:09;;;;;;;3.65;1.10;;;;;;;24.47;44.50;99698.84;4908463;29;20039;-53
2022/07/29 09:55:48;;;;;;;2.58;1.00;;;;;;;24.12;42.41;99720.16;4922756;29;20035;-53
2022/07/29 09:58:22;;;;;;;1.90;0.95;;;;;;;24.19;44.49;99680.84;4917000;29;20075;-53
2022/07/29 10:00:49;;;;;;;2.42;1.00;;;;;;;24.45;43.86;99723.75;4908562;29;20036;-53
2022/07/29 10:03:16;;;;;;;3.30;1.33;;;;;;;24.51;45.86;99722.44;4905185;29;20189;-53
2022/07/29 10:05:43;;;;;;;2.70;1.23;;;;;;;24.54;43.70;99712.47;4899371;29;20261;-54
2022/07/29 10:08:10;;;;;;;3.17;1.25;;;;;;;24.39;43.17;99711.84;4907290;29;20107;-53
2022/07/29 10:10:41;;;;;;;2.10;1.15;;;;;;;24.20;43.78;99671.91;4908805;29;20040;-53
2022/07/29 10:13:08;;;;;;;;;;;;;;;24.63;44.33;99711.75;4909328;29;20455;-54
2022/07/29 10:15:40;;;;;;;2.75;1.35;;;;;;;24.53;43.48;99663.09;4908945;29;19919;-53
2022/07/29 10:18:06;;;;;;;;;;;;;;;24.78;45.60;99711.47;4908374;29;20044;-53
2022/07/29 10:20:32;;;;;;;1.95;1.10;;;;;;;24.54;43.34;99722.19;4913449;29;20200;-53
2022/07/29 10:22:58;;;;;;;2.05;1.30;;;;;;;24.49;43.70;99714.63;4908702;29;20043;-54
2022/07/29 10:25:24;;;;;;;4.10;1.00;;;;;;;24.59;42.80;99717.38;4908495;29;20221;-53
2022/07/29 10:27:51;;;;;;;2.30;1.27;;;;;;;24.62;44.35;99702.09;4908026;29;20364;-54
2022/07/29 10:30:44;;;;;;;2.83;1.20;;;;;;;24.60;42.45;99704.03;4907989;29;20221;-53
2022/07/29 10:33:16;;;;;;;3.22;1.42;;;;;;;24.78;42.34;99701.75;4899373;29;20036;-54
2022/07/29 10:36:01;;;;;;;1.58;1.02;;;;;;;24.61;42.53;99705.75;4908440;29;20099;-53
2022/07/29 10:38:52;;;;;;;1.73;1.27;;;;;;;24.52;43.41;99710.88;4908104;29;20048;-53
2022/07/29 10:41:34;;;;;;;3.90;1.38;;;;;;;24.41;43.71;99702.00;4907260;29;20115;-52
2022/07/29 10:44:16;;;;;;;3.63;1.50;;;;;;;24.62;43.47;99704.75;4908133;29;20037;-53
2022/07/29 10:46:42;;;;;;;3.65;1.83;;;;;;;24.55;44.79;99708.00;4921530;29;20044;-53
2022/07/29 10:49:09;;;;;;;4.20;1.50;;;;;;;24.58;45.30;99716.53;4916647;29;20341;-53
2022/07/29 10:51:50;;;;;;;2.15;1.23;;;;;;;24.49;43.22;99704.03;4908012;29;20036;-53
2022/07/29 10:54:17;;;;;;;3.28;1.27;;;;;;;24.16;43.86;99705.72;4908838;29;20035;-53
2022/07/29 10:56:43;;;;;;;1.65;1.23;;;;;;;23.97;44.45;99705.47;4905658;29;20036;-54
2022/07/29 10:59:34;;;;;;;2.10;1.08;;;;;;;24.23;44.18;99676.97;4907081;29;20039;-54
2022/07/29 11:02:00;;;;;;;1.27;1.00;;;;;;;24.60;44.47;99700.56;4906398;29;20067;-54
2022/07/29 11:04:44;;;;;;;2.80;1.40;;;;;;;24.66;44.07;99708.00;4907730;29;20341;-54
2022/07/29 11:07:10;;;;;;;2.85;1.00;;;;;;;24.59;43.82;99707.63;4907851;29;20317;-54
2022/07/29 11:09:36;;;;;;;2.60;1.70;;;;;;;24.83;45.36;99708.44;4907867;29;20502;-53
2022/07/29 11:12:02;;;;;;;2.38;1.33;;;;;;;24.86;44.09;99711.69;4908024;29;20024;-53
2022/07/29 11:15:01;;;;;;;1.90;1.40;;;;;;;25.13;45.17;99715.72;4907907;29;20040;-53
2022/07/29 11:17:27;;;;;;;2.00;1.23;;;;;;;24.85;42.21;99703.88;4904245;29;20064;-54
2022/07/29 11:20:30;;;;;;;2.55;1.10;;;;;;;25.10;42.67;99702.72;4907534;29;20046;-54
2022/07/29 11:22:56;;;;;;;1.48;1.10;;;;;;;25.08;42.05;99709.94;4910447;29;20028;-54
2022/07/29 11:25:22;;;;;;;2.55;1.05;;;;;;;25.18;43.68;99705.56;4914563;29;20751;-54
2022/07/29 11:27:47;;;;;;;2.67;1.10;;;;;;;25.18;42.37;99707.38;4914059;29;20036;-54
2022/07/29 11:30:13;;;;;;;1.52;0.90;;;;;;;25.07;41.78;99710.91;4912220;29;20052;-54
2022/07/29 11:32:44;;;;;;;3.60;1.20;;;;;;;25.15;42.02;99713.78;4913765;29;20042;-54
2022/07/29 11:35:22;;;;;;;3.83;0.90;;;;;;;24.99;41.34;99674.44;4913631;29;20032;-54
2022/07/29 11:38:22;;;;;;;1.88;0.80;;;;;;;24.63;39.78;99701.16;4907872;29;20096;-54
2022/07/29 11:41:19;;;;;;;2.92;1.02;;;;;;;24.81;41.80;99714.72;4907508;29;20043;-54
2022/07/29 11:43:49;;;;;;;1.13;0.90;;;;;;;24.92;42.82;99718.31;4907463;29;20169;-54